Time;durP1;ratioP1;P1;durP2;ratioP2;P2;SDS_P1;SDS_P2;PMS_P1;PMS_P2;Temp;Humidity;BMP_temperature;BMP_pressure;BME280_temperature;BME280_humidity;BME280_pressure;Samples;Min_cycle;Max_cycle;Signal;HPM_P1;HPM_P2
2022/07/03 00:00:43;;;;;;;0.50;0.20;;;22.30;58.30;;;;;;5071205;28;20047;-68
2022/07/03 00:03:08;;;;;;;0.65;0.10;;;22.30;58.30;;;;;;5071168;28;20384;-69
2022/07/03 00:05:35;;;;;;;0.60;0.10;;;22.30;58.30;;;;;;5070719;28;20431;-68
2022/07/03 00:08:03;;;;;;;0.30;0.10;;;22.30;58.40;;;;;;5072352;28;20438;-68
2022/07/03 00:10:29;;;;;;;0.17;0.10;;;22.30;58.40;;;;;;5071001;28;20097;-68
2022/07/03 00:12:54;;;;;;;0.40;0.10;;;22.30;58.40;;;;;;5070865;28;20507;-69
2022/07/03 00:15:20;;;;;;;0.13;0.10;;;22.30;58.40;;;;;;5070622;28;20033;-68
2022/07/03 00:17:49;;;;;;;0.10;0.10;;;22.30;58.40;;;;;;5072002;28;20123;-69
2022/07/03 00:20:14;;;;;;;1.00;0.10;;;22.30;58.50;;;;;;5070850;28;20063;-68
2022/07/03 00:22:43;;;;;;;0.30;0.10;;;22.30;58.50;;;;;;5070879;28;20036;-68
2022/07/03 00:25:11;;;;;;;0.30;0.10;;;22.30;58.50;;;;;;5070705;28;20486;-68
2022/07/03 00:27:38;;;;;;;0.80;0.20;;;22.20;58.50;;;;;;5071951;28;20048;-68
2022/07/03 00:30:07;;;;;;;0.50;0.15;;;22.20;58.50;;;;;;5070625;28;20048;-68
2022/07/03 00:32:37;;;;;;;0.57;0.10;;;22.30;58.60;;;;;;5071124;28;20098;-69
2022/07/03 00:35:03;;;;;;;0.32;0.10;;;22.20;58.60;;;;;;5070398;28;20052;-68
2022/07/03 00:37:29;;;;;;;0.63;0.20;;;22.20;58.60;;;;;;5070409;28;20124;-68
2022/07/03 00:39:57;;;;;;;0.32;0.10;;;22.20;58.60;;;;;;5071920;28;20063;-68
2022/07/03 00:42:22;;;;;;;0.30;0.20;;;22.20;58.70;;;;;;5070676;28;20038;-68
2022/07/03 00:44:51;;;;;;;0.47;0.13;;;22.20;58.70;;;;;;5071542;28;20537;-68
2022/07/03 00:47:20;;;;;;;0.38;0.10;;;22.20;58.70;;;;;;5070850;28;20392;-68
2022/07/03 00:49:48;;;;;;;0.20;0.10;;;22.20;58.70;;;;;;5070290;28;20080;-68
2022/07/03 00:52:15;;;;;;;0.30;0.10;;;22.20;58.70;;;;;;5070333;28;20044;-68
2022/07/03 00:54:51;;;;;;;0.40;0.10;;;22.20;58.70;;;;;;5070261;28;20059;-68
2022/07/03 00:57:18;;;;;;;1.17;0.20;;;22.10;58.70;;;;;;5074091;28;20445;-68
2022/07/03 00:59:44;;;;;;;0.68;0.10;;;22.20;58.70;;;;;;5074352;28;20078;-69
2022/07/03 01:05:12;;;;;;;0.30;0.10;;;22.20;58.80;;;;;;5130287;27;20386;-67
2022/07/03 01:08:17;;;;;;;1.17;0.10;;;22.10;58.70;;;;;;5128978;28;20167;-67
2022/07/03 01:11:22;;;;;;;0.20;0.10;;;22.10;58.80;;;;;;5128759;28;20043;-67
2022/07/03 01:19:41;;;;;;;0.40;0.10;;;22.10;58.80;;;;;;5129462;27;20415;-67
2022/07/03 01:30:40;;;;;;;0.75;0.10;;;22.10;58.90;;;;;;5130371;27;21042;-67
2022/07/03 01:33:09;;;;;;;0.45;0.10;;;22.00;58.80;;;;;;5128409;28;20077;-67
2022/07/03 01:35:39;;;;;;;0.40;0.10;;;22.00;58.90;;;;;;5128380;28;20078;-67
2022/07/03 01:38:08;;;;;;;0.85;0.20;;;22.00;58.80;;;;;;5128708;28;20047;-67
2022/07/03 01:40:38;;;;;;;0.30;0.20;;;22.00;58.90;;;;;;5128873;28;20043;-67
2022/07/03 01:43:07;;;;;;;0.35;0.17;;;22.00;58.90;;;;;;5129031;28;20047;-67
2022/07/03 01:45:38;;;;;;;2.08;0.30;;;22.00;58.90;;;;;;5128119;28;20039;-67
2022/07/03 01:48:06;;;;;;;0.30;0.10;;;22.00;58.90;;;;;;5128719;28;20123;-67
2022/07/03 01:50:32;;;;;;;0.40;0.10;;;22.00;58.90;;;;;;5128610;27;20054;-67
2022/07/03 01:53:02;;;;;;;0.57;0.10;;;22.00;58.90;;;;;;5128968;28;20092;-67
2022/07/03 01:55:30;;;;;;;0.63;0.10;;;22.00;59.60;;;;;;5128522;28;20122;-67
2022/07/03 01:57:57;;;;;;;0.28;0.10;;;21.90;58.80;;;;;;5128716;28;20036;-67
2022/07/03 02:00:22;;;;;;;1.40;0.30;;;21.90;58.80;;;;;;5129741;28;20555;-67
2022/07/03 02:03:04;;;;;;;0.40;0.15;;;21.90;58.90;;;;;;5128479;28;20047;-67
2022/07/03 02:05:37;;;;;;;0.35;0.10;;;21.90;58.90;;;;;;5128328;28;20071;-67
2022/07/03 02:16:29;;;;;;;0.50;0.10;;;21.90;58.90;;;;;;5130409;27;20418;-67
2022/07/03 02:19:05;;;;;;;0.50;0.10;;;21.90;58.90;;;;;;5129013;28;20036;-67
2022/07/03 02:21:34;;;;;;;0.70;0.10;;;21.80;58.90;;;;;;5129220;27;20483;-67
2022/07/03 02:26:42;;;;;;;0.65;0.10;;;21.80;58.80;;;;;;5089390;28;20429;-67
2022/07/03 02:29:14;;;;;;;0.30;0.10;;;21.80;58.80;;;;;;5088100;28;20036;-67
2022/07/03 02:31:44;;;;;;;0.55;0.30;;;21.80;58.90;;;;;;5088310;28;20036;-67
2022/07/03 02:34:17;;;;;;;0.63;0.40;;;21.80;58.90;;;;;;5088205;28;20040;-69
2022/07/03 02:36:47;;;;;;;0.40;0.10;;;21.80;58.90;;;;;;5087273;28;20098;-69
2022/07/03 02:39:23;;;;;;;0.30;0.10;;;21.80;58.90;;;;;;5088127;28;20051;-69
2022/07/03 02:41:57;;;;;;;0.65;0.10;;;21.80;58.90;;;;;;5089137;28;20045;-69
2022/07/03 02:44:41;;;;;;;0.70;0.20;;;21.70;58.90;;;;;;5087978;28;20067;-69
2022/07/03 02:47:18;;;;;;;0.30;0.10;;;21.70;58.90;;;;;;5089027;28;20036;-69
2022/07/03 02:50:05;;;;;;;0.35;0.10;;;21.80;58.90;;;;;;5088091;28;20460;-69
2022/07/03 02:55:41;;;;;;;0.35;0.10;;;21.70;58.90;;;;;;5130292;27;20648;-67
2022/07/03 03:01:03;;;;;;;0.22;0.10;;;21.70;58.90;;;;;;5130253;27;20358;-67
2022/07/03 03:03:30;;;;;;;0.20;0.10;;;21.70;58.90;;;;;;5129288;28;20047;-67
2022/07/03 03:06:02;;;;;;;0.80;0.35;;;21.70;58.90;;;;;;5129267;28;20066;-67
2022/07/03 03:11:17;;;;;;;0.43;0.10;;;21.70;58.90;;;;;;5130257;27;20353;-67
2022/07/03 03:13:49;;;;;;;0.30;0.13;;;21.70;58.90;;;;;;5129090;27;20071;-67
2022/07/03 03:16:15;;;;;;;0.90;0.20;;;21.60;58.80;;;;;;5128928;28;20093;-67
2022/07/03 03:18:41;;;;;;;0.50;0.10;;;21.70;58.90;;;;;;5130224;27;20036;-67
2022/07/03 03:21:09;;;;;;;0.40;0.20;;;21.70;58.90;;;;;;5128902;28;20122;-67
2022/07/03 03:26:28;;;;;;;1.27;0.20;;;21.60;59.60;;;;;;5130270;27;20407;-67
2022/07/03 03:28:54;;;;;;;0.40;0.17;;;21.60;58.80;;;;;;5146563;27;20043;-66
2022/07/03 03:31:21;;;;;;;1.00;0.20;;;21.60;58.80;;;;;;5146125;27;20035;-67
2022/07/03 03:33:49;;;;;;;0.60;0.20;;;21.60;58.80;;;;;;5128767;27;20051;-67
2022/07/03 03:36:18;;;;;;;0.32;0.10;;;21.60;58.90;;;;;;5128942;28;20097;-66
2022/07/03 03:38:44;;;;;;;0.50;0.22;;;21.60;58.90;;;;;;5129064;28;20040;-67
2022/07/03 03:41:10;;;;;;;0.30;0.10;;;21.60;58.80;;;;;;5130055;27;20035;-67
2022/07/03 03:43:37;;;;;;;0.43;0.13;;;21.60;58.80;;;;;;5128637;27;20054;-67
2022/07/03 03:46:04;;;;;;;0.30;0.10;;;21.60;58.80;;;;;;5128634;28;20371;-67
2022/07/03 03:48:33;;;;;;;0.30;0.20;;;21.50;58.80;;;;;;5128899;28;20474;-67
2022/07/03 03:50:59;;;;;;;0.20;0.10;;;21.60;58.80;;;;;;5130064;27;20039;-67
2022/07/03 03:53:27;;;;;;;0.70;0.20;;;21.60;58.80;;;;;;5129925;27;20082;-67
2022/07/03 03:58:37;;;;;;;1.05;0.28;;;21.50;58.80;;;;;;5130186;27;20436;-67
2022/07/03 04:01:07;;;;;;;0.57;0.30;;;21.60;58.80;;;;;;5128992;28;20487;-67
2022/07/03 04:03:34;;;;;;;0.63;0.20;;;21.60;58.80;;;;;;5129245;28;20425;-67
2022/07/03 04:06:00;;;;;;;0.30;0.30;;;21.60;58.80;;;;;;5129106;28;20047;-67
2022/07/03 04:08:27;;;;;;;0.88;0.20;;;21.50;58.70;;;;;;5128848;28;20118;-67
2022/07/03 04:10:54;;;;;;;0.50;0.20;;;21.50;58.70;;;;;;5129140;27;20039;-67
2022/07/03 04:13:19;;;;;;;0.40;0.20;;;21.50;58.80;;;;;;5129971;27;20046;-67
2022/07/03 04:15:46;;;;;;;1.52;0.10;;;21.50;58.70;;;;;;5130055;27;20390;-67
2022/07/03 04:18:12;;;;;;;0.45;0.20;;;21.50;58.80;;;;;;5128556;28;20123;-67
2022/07/03 04:20:37;;;;;;;0.52;0.20;;;21.50;58.70;;;;;;5128829;27;20110;-69
2022/07/03 04:23:04;;;;;;;1.15;0.10;;;21.50;58.80;;;;;;5129937;27;20478;-67
2022/07/03 04:25:30;;;;;;;0.82;0.20;;;21.50;58.70;;;;;;5128550;28;20031;-67
2022/07/03 04:27:56;;;;;;;0.70;0.20;;;21.50;58.70;;;;;;5128539;28;20062;-67
2022/07/03 04:30:22;;;;;;;0.40;0.20;;;21.50;58.70;;;;;;5128658;27;20047;-67
2022/07/03 04:32:48;;;;;;;0.80;0.35;;;21.50;58.70;;;;;;5128330;27;20051;-67
2022/07/03 04:35:14;;;;;;;0.52;0.20;;;21.50;58.70;;;;;;5129610;27;20074;-67
2022/07/03 04:37:40;;;;;;;0.47;0.10;;;21.50;58.70;;;;;;5128310;28;20071;-67
2022/07/03 04:40:07;;;;;;;0.70;0.30;;;21.50;58.70;;;;;;5128262;28;20043;-67
2022/07/03 04:42:33;;;;;;;0.73;0.20;;;21.50;58.70;;;;;;5128525;28;20051;-67
2022/07/03 04:44:59;;;;;;;0.40;0.20;;;21.50;58.70;;;;;;5129765;27;20889;-67
2022/07/03 04:47:24;;;;;;;0.52;0.20;;;21.50;58.70;;;;;;5129370;28;20118;-67
2022/07/03 04:49:50;;;;;;;0.50;0.30;;;21.50;58.70;;;;;;5128014;28;20039;-67
2022/07/03 04:52:17;;;;;;;1.15;0.20;;;21.50;58.70;;;;;;5128329;28;20035;-67
2022/07/03 04:54:43;;;;;;;1.00;0.30;;;21.50;58.60;;;;;;5128208;28;20057;-67
2022/07/03 04:57:09;;;;;;;0.50;0.13;;;21.50;58.70;;;;;;5127612;28;20059;-67
2022/07/03 04:59:34;;;;;;;0.50;0.20;;;21.50;58.70;;;;;;5129019;28;20047;-66
2022/07/03 05:02:00;;;;;;;0.90;0.20;;;21.50;58.70;;;;;;5127883;27;20066;-67
2022/07/03 05:04:26;;;;;;;0.60;0.20;;;21.50;58.70;;;;;;5128039;28;20043;-67
2022/07/03 05:06:52;;;;;;;0.73;0.20;;;21.50;58.70;;;;;;5127990;28;20039;-67
2022/07/03 05:09:18;;;;;;;0.30;0.10;;;21.50;58.70;;;;;;5117454;28;20448;-67
2022/07/03 05:11:44;;;;;;;0.32;0.17;;;21.50;58.70;;;;;;5114196;28;20089;-67
2022/07/03 05:14:10;;;;;;;0.60;0.20;;;21.50;58.70;;;;;;5115156;28;20047;-67
2022/07/03 05:16:36;;;;;;;0.40;0.20;;;21.50;58.70;;;;;;5113800;28;20043;-67
2022/07/03 05:19:02;;;;;;;0.95;0.20;;;21.50;58.70;;;;;;5115203;28;20035;-67
2022/07/03 05:21:28;;;;;;;0.55;0.20;;;21.50;58.70;;;;;;5115007;28;20043;-67
2022/07/03 05:23:53;;;;;;;0.63;0.10;;;21.50;58.70;;;;;;5114063;28;20065;-67
2022/07/03 05:26:19;;;;;;;0.20;0.20;;;21.50;58.70;;;;;;5113901;28;20032;-67
2022/07/03 05:28:45;;;;;;;0.85;0.22;;;21.50;58.70;;;;;;5113740;28;20541;-67
2022/07/03 05:31:11;;;;;;;1.10;0.20;;;21.50;58.70;;;;;;5114843;28;20079;-67
2022/07/03 05:33:37;;;;;;;0.52;0.20;;;21.50;58.70;;;;;;5113149;28;20044;-67
2022/07/03 05:36:04;;;;;;;0.50;0.22;;;21.50;58.70;;;;;;5114886;28;20042;-67
2022/07/03 05:41:17;;;;;;;0.32;0.20;;;21.50;58.70;;;;;;5114501;28;20047;-67
2022/07/03 05:43:42;;;;;;;0.60;0.10;;;21.50;58.70;;;;;;5113191;28;20493;-67
2022/07/03 05:46:08;;;;;;;0.60;0.20;;;21.50;58.60;;;;;;5113177;28;20036;-67
2022/07/03 05:48:34;;;;;;;1.13;0.30;;;21.50;58.60;;;;;;5113595;28;20035;-67
2022/07/03 05:50:59;;;;;;;1.85;0.20;;;21.50;58.60;;;;;;5113302;28;20364;-67
2022/07/03 05:53:25;;;;;;;1.27;0.30;;;21.50;58.60;;;;;;5113121;28;20032;-67
2022/07/03 05:55:54;;;;;;;0.90;0.20;;;21.50;58.60;;;;;;5113154;28;20031;-67
2022/07/03 05:58:19;;;;;;;0.40;0.20;;;21.50;58.60;;;;;;5113943;28;20044;-67
2022/07/03 06:00:45;;;;;;;0.75;0.20;;;21.50;58.60;;;;;;5113283;28;20051;-67
2022/07/03 06:03:11;;;;;;;0.38;0.20;;;21.50;58.60;;;;;;5112982;28;20050;-67
2022/07/03 06:05:38;;;;;;;0.60;0.20;;;21.50;58.50;;;;;;5114222;28;20044;-68
2022/07/03 06:08:04;;;;;;;0.40;0.20;;;21.50;58.50;;;;;;5112844;28;20047;-67
2022/07/03 06:10:30;;;;;;;0.38;0.13;;;21.60;58.50;;;;;;5112422;28;20047;-67
2022/07/03 06:12:56;;;;;;;0.40;0.20;;;21.60;58.40;;;;;;5112407;28;20570;-67
2022/07/03 06:15:22;;;;;;;0.20;0.10;;;21.60;58.40;;;;;;5112738;28;20046;-67
2022/07/03 06:17:50;;;;;;;0.85;0.20;;;21.60;58.40;;;;;;5113882;28;20032;-67
2022/07/03 06:20:16;;;;;;;0.40;0.20;;;21.60;58.40;;;;;;5113145;28;20031;-67
2022/07/03 06:22:42;;;;;;;0.60;0.20;;;21.60;58.30;;;;;;5113910;28;20062;-67
2022/07/03 06:25:08;;;;;;;0.80;0.30;;;21.60;58.30;;;;;;5112542;28;20035;-67
2022/07/03 06:27:34;;;;;;;0.47;0.10;;;21.60;58.30;;;;;;5112708;28;20049;-67
2022/07/03 06:30:00;;;;;;;0.40;0.20;;;21.60;58.20;;;;;;5112416;28;20138;-67
2022/07/03 06:32:25;;;;;;;0.40;0.20;;;21.70;58.30;;;;;;5111803;28;20051;-67
2022/07/03 06:34:52;;;;;;;0.30;0.20;;;21.70;58.20;;;;;;5112620;28;20138;-67
2022/07/03 06:37:18;;;;;;;0.30;0.17;;;21.60;58.10;;;;;;5111422;28;20115;-67
2022/07/03 06:39:44;;;;;;;0.77;0.20;;;21.70;58.20;;;;;;5112406;28;20039;-67
2022/07/03 06:42:09;;;;;;;0.32;0.20;;;21.70;58.10;;;;;;5112682;28;20600;-67
2022/07/03 06:44:35;;;;;;;0.40;0.20;;;21.70;58.10;;;;;;5113136;28;20031;-67
2022/07/03 06:47:03;;;;;;;0.60;0.20;;;21.70;58.00;;;;;;5112089;28;20035;-67
2022/07/03 06:49:31;;;;;;;0.60;0.20;;;21.70;58.00;;;;;;5113263;28;20077;-67
2022/07/03 06:51:57;;;;;;;0.20;0.13;;;21.70;57.90;;;;;;5112061;28;20047;-67
2022/07/03 06:54:22;;;;;;;0.82;0.20;;;21.70;57.90;;;;;;5111825;28;20038;-67
2022/07/03 06:56:48;;;;;;;1.00;0.20;;;21.70;57.90;;;;;;5111837;28;20043;-67
2022/07/03 06:59:14;;;;;;;0.60;0.20;;;21.70;57.90;;;;;;5111635;28;20043;-70
2022/07/03 07:01:40;;;;;;;0.43;0.28;;;21.70;57.80;;;;;;5111790;28;20036;-67
2022/07/03 07:04:05;;;;;;;0.60;0.10;;;21.70;57.80;;;;;;5111752;28;20047;-67
2022/07/03 07:06:31;;;;;;;0.80;0.40;;;21.70;57.70;;;;;;5111677;28;20074;-67
2022/07/03 07:08:57;;;;;;;0.82;0.20;;;21.70;57.70;;;;;;5111620;28;20047;-67
2022/07/03 07:11:22;;;;;;;0.73;0.15;;;21.70;57.70;;;;;;5112898;28;20077;-67
2022/07/03 07:13:51;;;;;;;0.35;0.20;;;21.80;57.70;;;;;;5111464;28;20036;-67
2022/07/03 07:16:16;;;;;;;0.47;0.20;;;21.80;57.70;;;;;;5111456;28;20080;-67
2022/07/03 07:18:43;;;;;;;1.30;0.20;;;21.80;57.70;;;;;;5111804;28;20035;-67
2022/07/03 07:21:10;;;;;;;0.22;0.10;;;21.80;57.60;;;;;;5111351;28;20040;-67
2022/07/03 07:23:35;;;;;;;1.33;0.20;;;21.80;57.60;;;;;;5112796;27;20054;-67
2022/07/03 07:26:01;;;;;;;0.30;0.10;;;21.80;57.60;;;;;;5111711;28;20039;-67
2022/07/03 07:28:28;;;;;;;0.95;0.20;;;21.80;57.50;;;;;;5110963;28;20122;-67
2022/07/03 07:30:55;;;;;;;0.30;0.20;;;21.80;57.50;;;;;;5112241;28;20035;-67
2022/07/03 07:33:20;;;;;;;1.00;0.20;;;21.80;57.40;;;;;;5111098;28;20058;-67
2022/07/03 07:35:46;;;;;;;0.50;0.15;;;21.80;57.40;;;;;;5112598;28;20040;-66
2022/07/03 07:38:12;;;;;;;1.17;0.20;;;21.80;57.30;;;;;;5111282;28;20036;-67
2022/07/03 07:40:44;;;;;;;0.30;0.20;;;21.80;57.30;;;;;;5111188;28;20109;-66
2022/07/03 07:43:13;;;;;;;0.45;0.10;;;21.80;57.30;;;;;;5110611;28;20128;-67
2022/07/03 07:45:39;;;;;;;0.40;0.10;;;21.90;57.30;;;;;;5111141;28;20451;-67
2022/07/03 07:48:05;;;;;;;0.22;0.10;;;21.90;57.20;;;;;;5111449;28;20081;-67
2022/07/03 07:50:31;;;;;;;2.65;0.20;;;21.90;57.20;;;;;;5111311;28;20036;-66
2022/07/03 07:52:57;;;;;;;0.88;0.10;;;21.90;57.10;;;;;;5110730;28;20193;-66
2022/07/03 07:55:22;;;;;;;0.52;0.20;;;21.90;57.10;;;;;;5112046;28;20074;-67
2022/07/03 07:57:48;;;;;;;0.50;0.15;;;22.00;57.00;;;;;;5110684;28;20044;-66
2022/07/03 08:00:16;;;;;;;0.30;0.20;;;21.90;57.00;;;;;;5111389;28;20062;-67
2022/07/03 08:05:35;;;;;;;0.40;0.10;;;22.00;56.70;;;;;;5111957;28;20043;-67
2022/07/03 08:08:13;;;;;;;0.57;0.10;;;22.10;56.60;;;;;;5112231;28;20070;-67
2022/07/03 08:10:42;;;;;;;0.30;0.15;;;22.10;56.40;;;;;;5111008;28;20047;-67
2022/07/03 08:13:09;;;;;;;0.40;0.13;;;22.10;56.30;;;;;;5110938;28;20494;-67
2022/07/03 08:15:35;;;;;;;0.77;0.20;;;22.20;56.30;;;;;;5110951;28;20047;-67
2022/07/03 08:18:02;;;;;;;0.55;0.20;;;22.20;56.20;;;;;;5110702;28;20384;-67
2022/07/03 08:20:29;;;;;;;0.40;0.10;;;22.20;56.10;;;;;;5111076;28;20126;-67
2022/07/03 08:22:54;;;;;;;0.50;0.13;;;22.20;56.10;;;;;;5112051;28;20058;-67
2022/07/03 08:25:20;;;;;;;0.50;0.32;;;22.30;56.10;;;;;;5110975;28;20483;-67
2022/07/03 08:27:47;;;;;;;0.40;0.10;;;22.20;56.00;;;;;;5111033;28;20390;-67
2022/07/03 08:30:15;;;;;;;0.35;0.10;;;22.30;56.00;;;;;;5110977;28;20040;-67
2022/07/03 08:32:41;;;;;;;0.38;0.10;;;22.30;56.00;;;;;;5109951;28;20031;-67
2022/07/03 08:35:07;;;;;;;0.77;0.10;;;22.30;55.90;;;;;;5093940;28;20058;-67
2022/07/03 08:37:33;;;;;;;0.60;0.20;;;22.30;55.80;;;;;;5110765;28;20394;-67
2022/07/03 08:39:58;;;;;;;0.73;0.10;;;22.30;55.70;;;;;;5110634;28;20039;-68
2022/07/03 08:42:26;;;;;;;0.73;0.10;;;22.40;55.60;;;;;;5111848;28;20032;-67
2022/07/03 08:44:52;;;;;;;0.57;0.20;;;22.40;55.40;;;;;;5113836;28;20046;-67
2022/07/03 08:47:19;;;;;;;0.50;0.10;;;22.50;55.30;;;;;;5114478;28;20054;-67
2022/07/03 08:49:46;;;;;;;0.38;0.20;;;22.50;55.20;;;;;;5113954;28;20425;-67
2022/07/03 08:52:12;;;;;;;0.40;0.10;;;22.60;55.20;;;;;;5114037;28;20387;-67
2022/07/03 08:54:38;;;;;;;0.30;0.10;;;22.60;55.00;;;;;;5114311;28;20050;-67
2022/07/03 08:57:05;;;;;;;1.70;0.10;;;22.70;54.80;;;;;;5115224;28;20178;-67
2022/07/03 08:59:36;;;;;;;0.40;0.10;;;22.70;54.70;;;;;;5115594;28;20075;-67
2022/07/03 09:02:04;;;;;;;0.43;0.10;;;22.70;54.70;;;;;;5097226;28;20040;-67
2022/07/03 09:04:31;;;;;;;0.30;0.10;;;22.80;54.60;;;;;;5114389;28;20027;-67
2022/07/03 09:06:58;;;;;;;0.68;0.10;;;22.80;54.40;;;;;;5114175;28;20226;-67
2022/07/03 09:09:24;;;;;;;0.50;0.10;;;22.90;54.20;;;;;;5115185;28;20036;-67
2022/07/03 09:11:50;;;;;;;0.80;0.10;;;23.00;54.00;;;;;;5114014;28;20050;-67
2022/07/03 09:14:18;;;;;;;0.10;0.10;;;23.10;53.80;;;;;;5114188;28;20071;-67
2022/07/03 09:16:45;;;;;;;1.13;0.40;;;23.20;53.60;;;;;;5115408;28;20192;-67
2022/07/03 09:19:13;;;;;;;0.45;0.15;;;23.30;53.50;;;;;;5113880;28;20084;-67
2022/07/03 09:21:40;;;;;;;0.15;0.00;;;23.30;53.30;;;;;;5114156;28;20379;-67
2022/07/03 09:24:09;;;;;;;0.85;0.10;;;23.40;53.20;;;;;;5113955;28;20164;-67
2022/07/03 09:26:35;;;;;;;0.30;0.10;;;23.40;53.10;;;;;;5113882;28;20044;-67
2022/07/03 09:29:02;;;;;;;0.28;0.10;;;23.50;53.00;;;;;;5114029;28;20553;-67
2022/07/03 09:31:29;;;;;;;0.88;0.10;;;23.40;52.90;;;;;;5114012;28;20043;-67
2022/07/03 09:36:44;;;;;;;0.43;0.10;;;23.40;53.00;;;;;;5089331;27;20389;-67
2022/07/03 09:39:15;;;;;;;0.20;0.10;;;23.50;53.00;;;;;;5088092;28;20048;-67
2022/07/03 09:41:53;;;;;;;0.50;0.10;;;23.40;52.90;;;;;;5088134;28;20522;-67
2022/07/03 09:50:04;;;;;;;0.30;0.10;;;23.50;52.80;;;;;;5130180;27;20428;-67
2022/07/03 09:55:19;;;;;;;0.63;0.20;;;23.50;52.70;;;;;;5171799;27;20450;-67
2022/07/03 09:57:59;;;;;;;0.43;0.10;;;23.50;52.60;;;;;;5132247;27;20051;-67
2022/07/03 10:00:28;;;;;;;0.28;0.10;;;23.60;52.70;;;;;;5128368;28;20096;-67
2022/07/03 10:05:41;;;;;;;0.57;0.10;;;23.50;52.60;;;;;;5130284;27;20845;-67
2022/07/03 10:08:11;;;;;;;0.68;0.10;;;23.50;52.50;;;;;;5129162;28;20043;-67
2022/07/03 10:10:40;;;;;;;0.40;0.20;;;23.60;52.60;;;;;;5129149;28;20046;-67
2022/07/03 10:13:06;;;;;;;0.73;0.10;;;23.60;52.50;;;;;;5129315;28;20364;-67
2022/07/03 10:15:36;;;;;;;0.60;0.10;;;23.60;52.50;;;;;;5128621;28;20046;-67
2022/07/03 10:18:04;;;;;;;0.85;0.20;;;23.50;52.50;;;;;;5129048;28;20043;-67
2022/07/03 10:20:35;;;;;;;0.28;0.10;;;23.50;52.50;;;;;;5128657;28;20118;-67
2022/07/03 10:23:02;;;;;;;0.43;0.10;;;23.50;52.60;;;;;;5128644;28;20051;-67
2022/07/03 10:25:30;;;;;;;0.40;0.10;;;23.50;52.60;;;;;;5128561;28;20694;-67
2022/07/03 10:27:57;;;;;;;0.50;0.20;;;23.50;52.70;;;;;;5130095;27;20118;-67
2022/07/03 10:30:24;;;;;;;0.52;0.10;;;23.50;52.70;;;;;;5128453;28;20062;-67
2022/07/03 10:32:53;;;;;;;0.30;0.10;;;23.40;52.70;;;;;;5129319;27;20040;-67
2022/07/03 10:35:26;;;;;;;0.73;0.10;;;23.40;52.70;;;;;;5128483;28;20118;-67
2022/07/03 10:46:17;;;;;;;0.65;0.10;;;23.40;52.90;;;;;;5128930;28;20050;-67
2022/07/03 10:49:05;;;;;;;1.20;0.28;;;23.40;52.90;;;;;;5129242;28;20043;-67
2022/07/03 10:51:51;;;;;;;0.38;0.10;;;23.40;52.90;;;;;;5129013;27;20065;-67
2022/07/03 10:54:36;;;;;;;0.35;0.10;;;23.40;52.90;;;;;;5129134;28;20046;-67
2022/07/03 11:02:33;;;;;;;0.38;0.10;;;23.30;52.90;;;;;;5089477;27;20382;-67
2022/07/03 11:10:35;;;;;;;0.75;0.10;;;23.30;53.00;;;;;;5130307;27;20354;-67
2022/07/03 11:13:17;;;;;;;0.25;0.10;;;23.30;53.00;;;;;;5146132;27;20051;-67
2022/07/03 11:15:49;;;;;;;0.50;0.10;;;23.30;53.00;;;;;;5129253;27;20432;-67
2022/07/03 11:18:33;;;;;;;2.47;0.10;;;23.30;53.00;;;;;;5128881;28;20062;-67
2022/07/03 11:27:12;;;;;;;0.63;0.30;;;23.30;53.10;;;;;;5153323;27;1151302;-67
2022/07/03 11:29:38;;;;;;;0.20;0.10;;;23.30;53.10;;;;;;5153204;27;20038;-67
2022/07/03 11:32:45;;;;;;;0.28;0.10;;;23.20;53.20;;;;;;5153310;27;20045;-67
2022/07/03 11:35:51;;;;;;;0.60;0.20;;;23.30;53.20;;;;;;5153101;27;20054;-67
2022/07/03 11:38:22;;;;;;;0.57;0.10;;;23.30;53.20;;;;;;5153089;27;20052;-67
2022/07/03 11:40:51;;;;;;;0.82;0.10;;;23.30;53.20;;;;;;5152932;27;20042;-67
2022/07/03 11:43:16;;;;;;;0.55;0.10;;;23.30;53.20;;;;;;5153001;27;20085;-67
2022/07/03 11:45:42;;;;;;;0.52;0.25;;;23.30;53.20;;;;;;5152689;27;20517;-67
2022/07/03 11:48:20;;;;;;;0.52;0.10;;;23.30;53.20;;;;;;5171343;27;20085;-67
2022/07/03 11:50:48;;;;;;;0.40;0.30;;;23.30;53.10;;;;;;5152805;27;20042;-67
2022/07/03 11:55:59;;;;;;;0.38;0.10;;;23.20;53.10;;;;;;5130402;27;20417;-67
2022/07/03 11:58:38;;;;;;;0.20;0.10;;;23.30;53.10;;;;;;5128935;28;20036;-67
2022/07/03 12:01:04;;;;;;;0.22;0.10;;;23.30;53.10;;;;;;5130348;27;20130;-67
2022/07/03 12:03:30;;;;;;;0.70;0.10;;;23.30;53.10;;;;;;5128877;28;20490;-67
2022/07/03 12:05:58;;;;;;;0.30;0.05;;;23.30;53.10;;;;;;5128854;28;20085;-67
2022/07/03 12:08:26;;;;;;;0.40;0.10;;;23.30;53.10;;;;;;5129010;28;20039;-68
2022/07/03 12:10:57;;;;;;;0.85;0.10;;;23.30;53.10;;;;;;5128794;27;20054;-67
2022/07/03 12:13:25;;;;;;;0.30;0.10;;;23.30;53.00;;;;;;5128956;28;20058;-67
2022/07/03 12:15:50;;;;;;;0.55;0.10;;;23.30;53.00;;;;;;5128918;28;20364;-67
2022/07/03 12:18:16;;;;;;;0.30;0.20;;;23.30;53.00;;;;;;5128862;28;20035;-67
2022/07/03 12:20:42;;;;;;;0.30;0.10;;;23.30;53.10;;;;;;5128434;28;20442;-67
2022/07/03 12:23:08;;;;;;;0.50;0.10;;;23.30;53.10;;;;;;5128646;28;20035;-67
2022/07/03 12:25:40;;;;;;;0.45;0.43;;;23.20;53.20;;;;;;5129112;28;20486;-67
2022/07/03 12:28:09;;;;;;;0.50;0.10;;;23.30;53.20;;;;;;5129187;27;20118;-67
2022/07/03 12:30:36;;;;;;;0.50;0.10;;;23.30;53.20;;;;;;5128087;28;20062;-67
2022/07/03 12:33:02;;;;;;;1.27;0.20;;;23.30;53.30;;;;;;5128249;28;20042;-67
2022/07/03 12:35:29;;;;;;;0.95;0.10;;;23.30;53.30;;;;;;5128222;28;20439;-67
2022/07/03 12:37:54;;;;;;;0.50;0.20;;;23.30;53.30;;;;;;5128622;28;20035;-67
2022/07/03 12:40:20;;;;;;;0.90;0.10;;;23.20;53.40;;;;;;5129579;28;20038;-67
2022/07/03 12:42:52;;;;;;;0.30;0.10;;;23.20;53.40;;;;;;5128525;28;20669;-68
2022/07/03 12:45:22;;;;;;;0.52;0.10;;;23.20;53.40;;;;;;5127933;28;20047;-67
2022/07/03 12:48:05;;;;;;;0.45;0.10;;;23.20;53.40;;;;;;5128333;28;20047;-67
2022/07/03 12:53:27;;;;;;;0.35;0.10;;;23.30;53.40;;;;;;5130289;27;20357;-67
2022/07/03 12:55:52;;;;;;;0.47;0.10;;;23.30;53.40;;;;;;5128980;28;20051;-67
2022/07/03 13:01:28;;;;;;;;;;;23.30;53.30;;;;;;5129434;27;20097;-67
2022/07/03 13:03:58;;;;;;;0.25;0.10;;;23.30;53.30;;;;;;5129086;28;19941;-67
2022/07/03 13:06:24;;;;;;;0.57;0.10;;;23.30;53.30;;;;;;5128864;27;20077;-67
2022/07/03 13:11:41;;;;;;;0.60;0.10;;;23.30;53.40;;;;;;5130206;27;20104;-67
2022/07/03 13:16:50;;;;;;;0.73;0.10;;;23.30;53.50;;;;;;5130278;27;20410;-67
2022/07/03 13:19:19;;;;;;;0.60;0.20;;;23.30;53.50;;;;;;5128908;27;20039;-67
2022/07/03 13:21:45;;;;;;;0.50;0.10;;;23.30;53.50;;;;;;5129146;27;20092;-67
2022/07/03 13:24:13;;;;;;;0.30;0.10;;;23.20;53.50;;;;;;5128988;27;20494;-67
2022/07/03 13:26:39;;;;;;;0.35;0.10;;;23.30;53.70;;;;;;5129125;28;20707;-67
2022/07/03 13:29:05;;;;;;;1.42;0.10;;;23.20;53.70;;;;;;5146054;27;20039;-67
2022/07/03 13:31:31;;;;;;;0.70;0.10;;;23.20;54.40;;;;;;5128316;28;20375;-75
2022/07/03 13:33:58;;;;;;;1.23;0.13;;;23.20;53.70;;;;;;5128709;27;20038;-72
2022/07/03 13:36:26;;;;;;;1.45;0.10;;;23.20;53.90;;;;;;5128547;27;20050;-72
2022/07/03 13:38:51;;;;;;;0.40;0.10;;;23.20;54.40;;;;;;5128576;28;20043;-70
2022/07/03 13:41:18;;;;;;;1.58;0.10;;;23.30;54.60;;;;;;5129851;28;20031;-70
2022/07/03 13:43:48;;;;;;;1.58;0.20;;;23.20;54.50;;;;;;5129713;27;20061;-71
2022/07/03 13:46:15;;;;;;;0.20;0.10;;;23.20;54.50;;;;;;5129789;27;20398;-71
2022/07/03 13:48:41;;;;;;;0.40;0.10;;;23.20;54.60;;;;;;5128569;28;20075;-71
2022/07/03 13:51:06;;;;;;;0.95;0.20;;;23.20;54.80;;;;;;5128682;28;20136;-71
2022/07/03 13:53:33;;;;;;;0.95;0.15;;;23.20;54.80;;;;;;5129803;28;20326;-71
2022/07/03 13:55:58;;;;;;;0.50;0.10;;;23.20;54.70;;;;;;5129610;27;20031;-71
2022/07/03 13:58:25;;;;;;;0.45;0.10;;;23.20;54.70;;;;;;5128130;27;20423;-71
2022/07/03 14:00:52;;;;;;;0.40;0.10;;;23.20;54.70;;;;;;5128401;28;20471;-71
2022/07/03 14:03:18;;;;;;;0.40;0.10;;;23.20;54.70;;;;;;5128058;28;20142;-71
2022/07/03 14:05:50;;;;;;;0.65;0.10;;;23.20;54.70;;;;;;5129818;27;20074;-71
2022/07/03 14:08:17;;;;;;;1.00;0.10;;;23.20;54.70;;;;;;5127950;28;20043;-71
2022/07/03 14:10:42;;;;;;;0.30;0.20;;;23.30;54.80;;;;;;5128139;28;20485;-71
2022/07/03 14:13:08;;;;;;;0.50;0.10;;;23.30;54.70;;;;;;5127906;27;20043;-71
2022/07/03 14:15:33;;;;;;;1.17;0.10;;;23.40;54.80;;;;;;5127755;28;20051;-71
2022/07/03 14:18:01;;;;;;;0.40;0.10;;;23.40;54.80;;;;;;5127950;27;20434;-71
2022/07/03 14:20:27;;;;;;;0.68;0.30;;;23.40;54.80;;;;;;5128903;27;20035;-72
2022/07/03 14:22:53;;;;;;;0.30;0.10;;;23.40;54.80;;;;;;5129428;27;20046;-72
2022/07/03 14:25:19;;;;;;;0.30;0.10;;;23.40;54.80;;;;;;5127743;27;20043;-73
2022/07/03 14:33:16;;;;;;;0.98;0.30;;;23.40;54.80;;;;;;5113582;28;20142;-72
2022/07/03 14:35:41;;;;;;;0.20;0.10;;;23.40;54.80;;;;;;5113960;28;20126;-72
2022/07/03 14:38:08;;;;;;;0.40;0.10;;;23.40;54.80;;;;;;5115466;28;20031;-72
2022/07/03 14:40:34;;;;;;;0.68;0.15;;;23.40;54.80;;;;;;5115350;28;20035;-72